Time;durP1;ratioP1;P1;durP2;ratioP2;P2;SDS_P1;SDS_P2;PMS_P1;PMS_P2;Temp;Humidity;BMP_temperature;BMP_pressure;BME280_temperature;BME280_humidity;BME280_pressure;Samples;Min_cycle;Max_cycle;Signal;HPM_P1;HPM_P2
2021/12/19 05:00:19;;;;;;;5.85;2.10;;;6.50;99.90;;;;;;6112577;23;21157;31
2021/12/19 05:03:00;;;;;;;4.85;1.38;;;6.40;99.90;;;;;;4974072;28;20465;-78
2021/12/19 05:16:22;;;;;;;5.40;1.48;;;6.50;99.90;;;;;;4992184;28;20133;-79
2021/12/19 05:18:50;;;;;;;5.45;1.52;;;6.50;99.90;;;;;;4992223;28;20129;-79
2021/12/19 05:21:20;;;;;;;3.22;1.20;;;6.50;99.90;;;;;;4992085;28;20121;-79
2021/12/19 05:26:14;;;;;;;5.45;1.50;;;6.50;99.90;;;;;;4992444;28;20447;-79
2021/12/19 05:28:39;;;;;;;7.70;1.88;;;6.50;99.90;;;;;;4992220;28;20046;-78
2021/12/19 05:31:05;;;;;;;6.15;1.70;;;6.50;99.90;;;;;;4991917;28;20403;-78
2021/12/19 05:33:31;;;;;;;6.43;2.03;;;6.50;99.90;;;;;;4992148;28;20407;-78
2021/12/19 05:46:44;;;;;;;16.08;5.70;;;6.60;99.90;;;;;;4995743;28;20392;-78
2021/12/19 05:49:09;;;;;;;16.38;5.20;;;6.60;99.90;;;;;;4995379;28;20054;-78
2021/12/19 05:51:36;;;;;;;33.55;6.65;;;6.60;99.90;;;;;;4995645;28;20439;-79
2021/12/19 05:54:02;;;;;;;21.33;6.80;;;6.60;99.90;;;;;;4995362;28;20062;-80
2021/12/19 05:56:27;;;;;;;26.70;6.95;;;6.60;99.90;;;;;;4995279;28;20038;-79
2021/12/19 05:58:53;;;;;;;22.17;7.00;;;6.60;99.90;;;;;;4995729;28;20212;-79
2021/12/19 06:01:19;;;;;;;26.77;7.05;;;6.70;99.90;;;;;;4995114;28;20038;-79
2021/12/19 06:03:44;;;;;;;26.67;8.27;;;6.70;99.90;;;;;;4995197;28;20034;-79
2021/12/19 06:06:10;;;;;;;24.10;7.03;;;6.70;99.90;;;;;;4995642;28;20161;-79
2021/12/19 06:08:36;;;;;;;24.23;8.82;;;6.70;99.90;;;;;;4995429;28;20042;-78
2021/12/19 06:11:01;;;;;;;23.65;7.35;;;6.70;99.90;;;;;;4978978;28;20046;-78
2021/12/19 06:13:27;;;;;;;25.20;7.65;;;6.70;99.90;;;;;;4996291;28;20050;-81
2021/12/19 06:15:55;;;;;;;27.85;8.60;;;6.80;99.90;;;;;;4995189;28;20484;-80
2021/12/19 06:18:21;;;;;;;20.38;7.75;;;6.80;99.90;;;;;;4995022;28;20488;-80
2021/12/19 06:20:46;;;;;;;25.83;7.53;;;6.80;99.90;;;;;;4994918;28;20053;-80
2021/12/19 06:23:12;;;;;;;33.58;8.43;;;6.80;99.90;;;;;;4994686;28;20054;-78
2021/12/19 06:25:45;;;;;;;23.67;8.23;;;6.80;99.90;;;;;;4994965;28;20038;-80
2021/12/19 06:28:15;;;;;;;18.70;7.85;;;6.80;99.90;;;;;;4995463;28;20047;-80
2021/12/19 06:30:41;;;;;;;35.20;10.05;;;6.80;99.90;;;;;;4995708;28;20546;-80
2021/12/19 06:33:07;;;;;;;27.30;9.88;;;6.80;99.90;;;;;;4995075;28;20077;-80
2021/12/19 06:35:33;;;;;;;29.67;9.70;;;6.80;99.90;;;;;;4995920;28;20088;-80
2021/12/19 06:37:58;;;;;;;47.05;11.80;;;6.90;99.90;;;;;;4994918;28;20047;-80
2021/12/19 06:40:25;;;;;;;32.63;11.05;;;6.90;99.90;;;;;;4994443;28;20042;-79
2021/12/19 06:42:50;;;;;;;37.63;11.23;;;6.80;99.90;;;;;;4994822;28;20412;-79
2021/12/19 06:45:17;;;;;;;31.75;11.13;;;6.90;99.90;;;;;;4995656;28;20062;-80
2021/12/19 06:47:43;;;;;;;33.65;10.82;;;6.90;99.90;;;;;;4977442;28;20053;-79
2021/12/19 06:50:12;;;;;;;30.30;10.13;;;6.90;99.90;;;;;;4993526;28;20050;-79
2021/12/19 06:52:38;;;;;;;22.70;9.55;;;6.90;99.90;;;;;;4993150;28;20074;-79
2021/12/19 06:55:05;;;;;;;25.75;8.77;;;6.90;99.90;;;;;;4994685;28;20101;-84
2021/12/19 06:57:31;;;;;;;26.02;8.48;;;6.90;99.90;;;;;;4994886;28;20046;-82
2021/12/19 06:59:56;;;;;;;18.75;5.30;;;6.90;99.90;;;;;;4994130;28;20042;-86
2021/12/19 07:02:22;;;;;;;15.23;5.82;;;6.90;99.90;;;;;;4994538;28;20042;-81
2021/12/19 07:04:51;;;;;;;14.90;5.35;;;6.90;99.90;;;;;;4994343;28;20045;-88
2021/12/19 07:07:19;;;;;;;19.88;5.57;;;6.90;99.90;;;;;;4996617;28;20088;-88
2021/12/19 07:09:44;;;;;;;17.85;4.68;;;6.90;99.90;;;;;;4995053;28;20082;-85
2021/12/19 07:12:10;;;;;;;17.15;5.35;;;6.90;99.90;;;;;;4994650;28;20066;-86
2021/12/19 07:14:36;;;;;;;33.92;5.80;;;6.90;99.90;;;;;;4994884;28;20037;-77
2021/12/19 07:17:02;;;;;;;23.35;4.95;;;6.90;99.90;;;;;;4996208;28;20392;-78
2021/12/19 07:19:28;;;;;;;21.38;5.03;;;6.90;99.90;;;;;;4993503;28;20404;-80
2021/12/19 07:21:53;;;;;;;18.90;5.28;;;6.90;99.90;;;;;;4993820;28;20038;-80
2021/12/19 07:24:19;;;;;;;17.85;5.55;;;6.90;99.90;;;;;;4994937;28;20038;-81
2021/12/19 07:26:45;;;;;;;26.58;5.32;;;6.90;99.90;;;;;;4993825;28;20496;-81
2021/12/19 07:29:10;;;;;;;19.98;5.50;;;6.80;99.90;;;;;;4993471;28;20077;-81
2021/12/19 07:31:38;;;;;;;18.83;6.40;;;6.80;99.90;;;;;;4995085;28;20070;-81
2021/12/19 07:34:05;;;;;;;15.88;5.53;;;6.90;99.90;;;;;;4993734;28;20097;-81
2021/12/19 07:36:38;;;;;;;24.15;6.90;;;6.90;99.90;;;;;;4995170;28;20034;-80
2021/12/19 07:41:53;;;;;;;21.95;6.63;;;6.90;99.90;;;;;;4900234;29;20430;-80
2021/12/19 07:44:19;;;;;;;23.52;6.82;;;6.90;99.90;;;;;;4900320;29;20502;-81
2021/12/19 07:46:45;;;;;;;22.60;6.65;;;6.80;99.90;;;;;;4900477;29;20115;-81
2021/12/19 07:49:12;;;;;;;22.20;7.75;;;6.90;99.90;;;;;;4899698;29;20494;-80
2021/12/19 07:51:37;;;;;;;19.55;6.53;;;6.90;99.90;;;;;;4915479;29;20058;-80
2021/12/19 07:54:03;;;;;;;26.67;6.22;;;6.90;99.90;;;;;;4900099;29;20055;-80
2021/12/19 07:56:31;;;;;;;26.85;7.00;;;6.90;99.90;;;;;;4899797;29;20044;-80
2021/12/19 07:58:57;;;;;;;25.00;6.97;;;6.90;99.90;;;;;;4915537;29;20159;-79
2021/12/19 08:01:22;;;;;;;19.05;5.70;;;6.90;99.90;;;;;;4915454;29;20036;-80
2021/12/19 08:03:48;;;;;;;19.88;7.13;;;6.90;99.90;;;;;;4898912;29;20036;-81
2021/12/19 08:06:13;;;;;;;16.50;5.68;;;6.90;99.90;;;;;;4951869;28;20098;-80
2021/12/19 08:08:46;;;;;;;21.45;5.72;;;6.90;99.90;;;;;;4993250;28;20042;-81
2021/12/19 08:13:56;;;;;;;14.95;4.55;;;6.90;99.90;;;;;;4992794;28;20054;-80
2021/12/19 08:16:21;;;;;;;15.05;4.05;;;6.90;99.90;;;;;;4992684;28;20081;-81
2021/12/19 08:18:52;;;;;;;12.05;4.05;;;6.90;99.90;;;;;;4993134;28;20129;-80
2021/12/19 08:21:17;;;;;;;15.02;3.63;;;6.90;99.90;;;;;;4992771;28;20451;-79
2021/12/19 08:23:43;;;;;;;12.32;3.15;;;6.90;99.90;;;;;;4993168;28;20038;-80
2021/12/19 08:26:08;;;;;;;10.80;3.08;;;6.80;99.90;;;;;;4992658;28;20148;-80
2021/12/19 08:28:34;;;;;;;12.63;3.13;;;6.80;99.90;;;;;;4992638;28;20166;-81
2021/12/19 08:30:59;;;;;;;15.80;3.65;;;6.80;99.90;;;;;;4992406;28;20078;-80
2021/12/19 08:33:25;;;;;;;10.95;2.70;;;6.80;99.90;;;;;;4993046;28;20053;-82
2021/12/19 08:35:51;;;;;;;11.50;3.22;;;6.90;99.90;;;;;;4992621;28;20528;-80
2021/12/19 08:38:16;;;;;;;14.25;3.95;;;6.80;99.90;;;;;;4994541;28;20078;-80
2021/12/19 08:40:44;;;;;;;14.20;3.90;;;6.80;99.90;;;;;;4993037;28;20042;-81
2021/12/19 08:43:10;;;;;;;15.98;3.75;;;6.80;99.90;;;;;;4992464;28;20061;-80
2021/12/19 08:45:35;;;;;;;16.13;3.97;;;6.80;99.90;;;;;;4992713;28;20046;-81
2021/12/19 08:48:03;;;;;;;22.02;4.82;;;6.80;99.90;;;;;;4993695;28;20456;-80
2021/12/19 08:50:29;;;;;;;13.77;4.53;;;6.80;99.90;;;;;;4992418;28;20049;-79
2021/12/19 08:52:55;;;;;;;19.08;4.78;;;6.80;99.90;;;;;;4993543;28;20038;-80
2021/12/19 08:55:21;;;;;;;14.32;3.70;;;6.90;99.90;;;;;;4992393;28;20047;-80
2021/12/19 08:57:46;;;;;;;22.42;4.60;;;6.90;99.90;;;;;;4992633;28;20125;-80
2021/12/19 09:00:14;;;;;;;12.55;3.53;;;6.90;99.90;;;;;;4992511;28;20487;-80
2021/12/19 09:02:45;;;;;;;18.90;4.68;;;6.90;99.90;;;;;;4992246;28;20034;-79
2021/12/19 09:05:11;;;;;;;17.85;4.25;;;6.90;99.90;;;;;;4992284;28;20038;-79
2021/12/19 09:07:37;;;;;;;22.70;10.05;;;6.90;99.90;;;;;;4992306;28;20381;-80
2021/12/19 09:10:04;;;;;;;18.55;6.50;;;6.90;99.90;;;;;;4992496;28;20042;-81
2021/12/19 09:12:30;;;;;;;13.90;4.00;;;6.90;99.90;;;;;;4992042;28;20041;-81
2021/12/19 09:14:56;;;;;;;14.57;4.15;;;6.90;99.90;;;;;;4996028;28;20031;-80
2021/12/19 09:17:21;;;;;;;12.95;4.53;;;6.90;99.90;;;;;;4995980;28;20146;-81
2021/12/19 09:19:47;;;;;;;14.95;4.82;;;7.00;99.90;;;;;;4996197;28;20503;-81
2021/12/19 09:22:12;;;;;;;18.20;4.10;;;6.90;99.90;;;;;;4996108;28;20070;-81
2021/12/19 09:24:38;;;;;;;16.50;5.47;;;7.00;99.90;;;;;;4997448;28;20455;-82
2021/12/19 09:27:04;;;;;;;16.80;4.30;;;6.90;99.90;;;;;;4995989;28;20133;-80
2021/12/19 09:29:30;;;;;;;21.60;5.50;;;7.00;99.90;;;;;;4996037;28;20126;-80
2021/12/19 09:31:57;;;;;;;13.63;4.35;;;7.00;99.90;;;;;;4997196;28;20125;-80
2021/12/19 09:34:23;;;;;;;13.10;3.88;;;7.00;99.90;;;;;;4995942;28;20052;-81
2021/12/19 09:36:49;;;;;;;16.75;4.03;;;7.00;99.90;;;;;;4995578;28;20038;-80
2021/12/19 09:39:15;;;;;;;14.70;4.32;;;7.00;99.90;;;;;;4995523;28;20122;-81
2021/12/19 09:41:44;;;;;;;18.13;4.38;;;7.00;99.90;;;;;;4995525;28;20547;-80
2021/12/19 09:44:13;;;;;;;18.42;4.00;;;7.10;99.90;;;;;;4995504;28;20049;-79
2021/12/19 09:46:41;;;;;;;17.95;4.72;;;7.10;99.90;;;;;;4995819;28;20038;-80
2021/12/19 09:49:09;;;;;;;23.00;4.65;;;7.10;99.90;;;;;;4996668;28;20484;-80
2021/12/19 09:51:35;;;;;;;17.50;3.95;;;7.10;99.90;;;;;;4995671;28;20046;-81
2021/12/19 09:54:01;;;;;;;21.85;5.28;;;7.20;99.90;;;;;;4995407;28;20057;-79
2021/12/19 09:56:27;;;;;;;16.77;4.20;;;7.20;99.90;;;;;;4995332;28;20038;-80
2021/12/19 09:58:53;;;;;;;19.85;4.22;;;7.20;99.90;;;;;;4995194;28;20046;-80
2021/12/19 10:01:19;;;;;;;23.48;4.35;;;7.20;99.90;;;;;;4995349;28;20439;-81
2021/12/19 10:03:45;;;;;;;15.20;3.72;;;7.20;99.90;;;;;;4995358;28;20043;-81
2021/12/19 10:06:28;;;;;;;22.02;4.72;;;7.20;99.90;;;;;;4995617;28;20153;-80
2021/12/19 10:09:13;;;;;;;19.75;3.92;;;7.30;99.90;;;;;;4995960;28;20046;-80
2021/12/19 10:11:55;;;;;;;17.05;3.97;;;7.30;99.90;;;;;;4994942;28;20053;-81
2021/12/19 10:14:29;;;;;;;19.50;5.05;;;7.30;99.90;;;;;;4995060;28;20092;-79
2021/12/19 10:17:04;;;;;;;23.17;4.82;;;7.30;99.90;;;;;;4995034;28;20046;-81
2021/12/19 10:19:50;;;;;;;17.38;4.22;;;7.30;99.90;;;;;;4978748;28;20042;-80
2021/12/19 10:22:32;;;;;;;13.23;3.60;;;7.30;99.90;;;;;;4978716;28;20074;-80
2021/12/19 10:25:20;;;;;;;18.27;4.18;;;7.30;99.90;;;;;;4995015;28;20053;-80
2021/12/19 10:28:02;;;;;;;14.75;5.18;;;7.30;99.90;;;;;;4994516;28;20492;-81
2021/12/19 10:30:29;;;;;;;29.65;5.07;;;7.30;99.90;;;;;;4995280;28;20477;-81
2021/12/19 10:33:06;;;;;;;15.63;4.47;;;7.40;99.90;;;;;;4996083;28;20084;-81
2021/12/19 10:35:35;;;;;;;17.63;4.60;;;7.40;99.90;;;;;;4995077;28;20046;-81
2021/12/19 10:38:02;;;;;;;24.00;4.78;;;7.40;99.90;;;;;;4978420;28;20050;-80
2021/12/19 10:40:29;;;;;;;20.23;4.78;;;7.40;99.90;;;;;;4995637;28;20038;-80
2021/12/19 10:43:00;;;;;;;24.90;4.72;;;7.40;99.90;;;;;;4997263;28;20040;-81
2021/12/19 10:45:42;;;;;;;18.58;4.85;;;7.40;99.90;;;;;;5003576;28;20038;-75
2021/12/19 10:48:28;;;;;;;19.02;4.93;;;7.40;99.90;;;;;;5002027;28;20053;-80
2021/12/19 10:51:14;;;;;;;20.02;5.03;;;7.40;99.90;;;;;;4996652;28;20053;-81
2021/12/19 10:53:46;;;;;;;20.27;8.40;;;7.40;99.90;;;;;;4994752;28;20121;-81
2021/12/19 10:56:21;;;;;;;25.08;7.00;;;7.40;99.90;;;;;;4978028;28;20038;-80
2021/12/19 10:59:01;;;;;;;22.92;8.77;;;7.50;99.90;;;;;;4994143;28;20047;-81
2021/12/19 11:01:31;;;;;;;28.45;8.27;;;7.40;99.90;;;;;;4994067;28;20046;-80
2021/12/19 11:03:59;;;;;;;31.77;8.65;;;7.50;99.90;;;;;;4994226;28;20515;-81
2021/12/19 11:06:31;;;;;;;24.08;8.25;;;7.50;99.90;;;;;;4994054;28;20054;-81
2021/12/19 11:08:59;;;;;;;22.90;6.13;;;7.50;99.90;;;;;;4994314;28;20050;-82
2021/12/19 11:11:52;;;;;;;25.17;4.40;;;7.50;99.90;;;;;;4993959;28;20093;-80
2021/12/19 11:14:28;;;;;;;20.95;7.40;;;7.50;99.90;;;;;;4994245;28;20060;-79
2021/12/19 11:17:03;;;;;;;17.75;5.60;;;7.50;99.90;;;;;;4977521;28;20053;-81
2021/12/19 11:19:29;;;;;;;18.60;5.65;;;7.50;99.90;;;;;;4994837;28;20118;-81
2021/12/19 11:21:55;;;;;;;20.40;7.57;;;7.60;99.90;;;;;;4993647;28;20093;-81
2021/12/19 11:24:23;;;;;;;19.30;6.63;;;7.60;99.90;;;;;;4994031;28;20042;-80
2021/12/19 11:26:53;;;;;;;19.38;6.95;;;7.60;99.90;;;;;;4993630;28;20532;-81
2021/12/19 11:29:19;;;;;;;22.08;7.07;;;7.60;99.90;;;;;;4995205;28;20038;-81
2021/12/19 11:31:50;;;;;;;22.77;6.68;;;7.60;99.90;;;;;;5010323;28;20508;-81
2021/12/19 11:34:18;;;;;;;114.72;54.17;;;7.60;99.90;;;;;;4993574;28;20508;-81
2021/12/19 11:36:52;;;;;;;22.45;6.18;;;7.60;99.90;;;;;;4993576;28;20042;-80
2021/12/19 11:39:18;;;;;;;19.90;5.32;;;7.60;99.90;;;;;;4995275;28;20380;-80
2021/12/19 11:42:06;;;;;;;21.55;5.30;;;7.60;99.90;;;;;;5009955;28;20050;-79
2021/12/19 11:44:41;;;;;;;18.08;3.78;;;7.60;99.90;;;;;;4993575;28;20542;-81
2021/12/19 11:47:12;;;;;;;16.33;3.80;;;7.60;99.90;;;;;;4994435;28;20555;-80
2021/12/19 11:49:37;;;;;;;15.43;4.00;;;7.60;99.90;;;;;;4993272;28;20038;-81
2021/12/19 11:52:29;;;;;;;22.20;4.63;;;7.60;99.90;;;;;;4993476;28;20046;-81
2021/12/19 11:55:13;;;;;;;26.95;4.28;;;7.60;99.90;;;;;;4994579;28;20046;-79
2021/12/19 11:57:43;;;;;;;18.70;5.15;;;7.60;99.90;;;;;;4993148;28;20111;-81
2021/12/19 12:00:27;;;;;;;22.98;5.15;;;7.60;99.90;;;;;;4992864;28;20082;-80
2021/12/19 12:03:11;;;;;;;23.48;4.20;;;7.60;99.90;;;;;;4993044;28;20057;-81
2021/12/19 12:05:37;;;;;;;17.23;3.97;;;7.70;99.90;;;;;;4992810;28;20548;-82
2021/12/19 12:08:06;;;;;;;20.83;4.50;;;7.70;99.90;;;;;;4993037;28;20484;-81
2021/12/19 12:10:47;;;;;;;21.52;4.47;;;7.60;99.90;;;;;;4992752;28;20044;-81
2021/12/19 12:13:29;;;;;;;20.55;4.40;;;7.70;99.90;;;;;;4976599;28;20042;-81
2021/12/19 12:16:10;;;;;;;19.08;4.30;;;7.70;99.90;;;;;;4992578;28;20506;-80
2021/12/19 12:18:38;;;;;;;22.70;4.75;;;7.70;99.90;;;;;;4994217;28;20042;-81
2021/12/19 12:21:20;;;;;;;16.70;4.45;;;7.70;99.90;;;;;;4992676;28;20504;-80
2021/12/19 12:23:55;;;;;;;15.23;4.40;;;7.70;99.90;;;;;;4976638;28;20042;-81
2021/12/19 12:26:30;;;;;;;17.08;3.53;;;7.70;99.90;;;;;;4993993;28;20409;-81
2021/12/19 12:28:56;;;;;;;13.73;3.00;;;7.70;99.90;;;;;;4992934;28;20458;-80
2021/12/19 12:31:23;;;;;;;23.92;4.82;;;7.70;99.90;;;;;;4992335;28;20042;-80
2021/12/19 12:33:50;;;;;;;20.15;3.33;;;7.80;99.90;;;;;;4992547;28;20054;-81
2021/12/19 12:36:16;;;;;;;18.15;4.22;;;7.80;99.90;;;;;;4976525;28;20425;-81
2021/12/19 12:38:46;;;;;;;20.95;4.00;;;7.80;99.90;;;;;;4992956;28;20388;-81
2021/12/19 12:41:27;;;;;;;14.68;3.03;;;7.80;99.90;;;;;;4992212;28;20038;-81
2021/12/19 12:43:53;;;;;;;16.13;3.35;;;7.80;99.90;;;;;;4992534;28;20038;-81
2021/12/19 12:46:24;;;;;;;11.45;4.00;;;7.80;99.90;;;;;;4992553;28;20479;-80
2021/12/19 12:48:54;;;;;;;18.67;4.75;;;7.80;99.90;;;;;;4991975;28;20105;-81
2021/12/19 12:51:58;;;;;;;16.40;3.63;;;7.90;99.90;;;;;;4992402;28;20392;-80
2021/12/19 12:54:35;;;;;;;16.83;4.25;;;7.90;99.90;;;;;;4917934;29;20055;-80
2021/12/19 12:57:04;;;;;;;16.10;3.70;;;7.90;99.90;;;;;;4985108;28;20086;-80
2021/12/19 12:59:38;;;;;;;13.23;2.97;;;7.90;99.90;;;;;;4992142;28;20085;-81
2021/12/19 13:02:14;;;;;;;15.82;3.60;;;7.90;99.90;;;;;;4992080;28;20122;-80
2021/12/19 13:04:43;;;;;;;16.45;3.10;;;7.90;99.90;;;;;;4992468;28;20054;-80
2021/12/19 13:07:16;;;;;;;15.65;3.55;;;7.90;99.90;;;;;;4975888;28;20042;-81
2021/12/19 13:09:49;;;;;;;20.23;3.78;;;7.90;99.90;;;;;;4992306;28;20553;-81
2021/12/19 13:12:20;;;;;;;16.38;3.53;;;7.90;99.90;;;;;;4975990;28;20100;-81
2021/12/19 13:14:50;;;;;;;20.58;4.10;;;7.90;99.90;;;;;;4992254;28;20046;-79
2021/12/19 13:17:23;;;;;;;28.30;4.13;;;7.80;99.90;;;;;;4991946;28;20077;-81
2021/12/19 13:19:58;;;;;;;19.48;4.00;;;7.80;99.90;;;;;;4992302;28;20077;-80
2021/12/19 13:22:24;;;;;;;;;;;7.80;99.90;;;;;;4976206;28;20542;-81
2021/12/19 13:24:51;;;;;;;;;;;7.80;99.90;;;;;;4992519;28;20016;-81
2021/12/19 13:27:29;;;;;;;20.95;3.40;;;7.80;99.90;;;;;;4992109;28;19918;-81
2021/12/19 13:30:04;;;;;;;16.00;3.53;;;7.70;99.90;;;;;;4991834;28;20177;-80
2021/12/19 13:32:46;;;;;;;22.88;4.20;;;7.80;99.90;;;;;;4991700;28;20046;-80
2021/12/19 13:35:38;;;;;;;21.83;4.45;;;7.80;99.90;;;;;;4992174;28;20049;-81
2021/12/19 13:38:08;;;;;;;22.00;4.40;;;7.80;99.90;;;;;;4992444;28;20050;-81
2021/12/19 13:40:37;;;;;;;17.17;3.28;;;7.80;99.90;;;;;;4991790;28;20077;-81
2021/12/19 13:43:13;;;;;;;18.77;3.85;;;7.90;99.90;;;;;;4991733;28;20130;-80
2021/12/19 13:45:53;;;;;;;22.52;4.93;;;7.90;99.90;;;;;;4992010;28;20046;-81
2021/12/19 13:48:18;;;;;;;23.83;4.57;;;7.90;99.90;;;;;;4992104;28;20046;-81
2021/12/19 13:50:48;;;;;;;20.90;3.78;;;7.90;99.90;;;;;;4991914;28;20108;-80
2021/12/19 13:53:16;;;;;;;19.00;3.60;;;7.90;99.90;;;;;;4975704;28;20567;-81
2021/12/19 13:55:49;;;;;;;20.90;4.18;;;7.90;99.90;;;;;;4992015;28;20072;-81
2021/12/19 13:58:16;;;;;;;25.95;3.83;;;8.00;99.90;;;;;;4993180;28;20097;-80
2021/12/19 14:00:45;;;;;;;25.17;4.18;;;8.00;99.90;;;;;;4992289;28;20186;-81
2021/12/19 14:03:11;;;;;;;24.08;3.22;;;8.00;99.90;;;;;;4995658;28;20050;-79
2021/12/19 14:05:41;;;;;;;25.50;4.65;;;8.00;99.90;;;;;;4995127;28;20046;-82
2021/12/19 14:08:19;;;;;;;19.83;3.47;;;8.00;99.90;;;;;;4995253;28;20130;-80
2021/12/19 14:10:45;;;;;;;22.30;3.40;;;7.90;99.90;;;;;;4995026;28;20492;-81
2021/12/19 14:13:30;;;;;;;20.77;4.00;;;7.90;99.90;;;;;;4995139;28;20050;-83
2021/12/19 14:15:55;;;;;;;20.02;3.00;;;7.90;99.90;;;;;;4995123;28;20058;-81
2021/12/19 14:18:45;;;;;;;23.50;3.60;;;7.90;99.90;;;;;;4995006;28;20042;-81
2021/12/19 14:21:34;;;;;;;23.85;3.85;;;7.90;99.90;;;;;;4994670;28;20389;-84
2021/12/19 14:24:09;;;;;;;22.13;4.10;;;7.90;99.90;;;;;;4995161;28;20559;-82
2021/12/19 14:26:36;;;;;;;25.67;3.38;;;7.90;99.90;;;;;;4994724;28;20169;-81
2021/12/19 14:29:02;;;;;;;16.92;3.65;;;7.90;99.90;;;;;;4995155;28;20149;-81
2021/12/19 14:31:44;;;;;;;15.52;3.10;;;7.90;99.90;;;;;;4994832;28;20502;-80
2021/12/19 14:34:21;;;;;;;20.52;3.95;;;7.90;99.90;;;;;;4994696;28;20042;-81
2021/12/19 14:36:47;;;;;;;26.13;4.95;;;7.90;99.90;;;;;;4994367;28;20093;-82
2021/12/19 14:39:15;;;;;;;22.73;4.93;;;7.90;99.90;;;;;;4994531;28;20042;-82
2021/12/19 14:41:42;;;;;;;27.17;4.57;;;7.90;99.90;;;;;;4996263;28;20061;-81
2021/12/19 14:44:21;;;;;;;15.35;3.50;;;7.90;99.90;;;;;;4994511;28;20045;-81
2021/12/19 14:46:48;;;;;;;15.10;2.80;;;7.90;99.90;;;;;;4994720;28;20046;-81
2021/12/19 14:49:14;;;;;;;22.02;4.10;;;7.90;99.90;;;;;;4997744;28;20042;-82
2021/12/19 14:51:40;;;;;;;25.33;3.75;;;7.90;99.90;;;;;;4994963;28;20441;-80
2021/12/19 14:54:06;;;;;;;16.50;3.05;;;7.90;99.90;;;;;;5002959;28;20058;-79
2021/12/19 14:56:31;;;;;;;21.10;3.55;;;7.90;99.90;;;;;;5010837;28;20056;-79
2021/12/19 14:59:00;;;;;;;18.25;2.85;;;7.90;99.90;;;;;;4998470;28;20042;-82
2021/12/19 15:01:31;;;;;;;16.33;2.88;;;7.80;99.90;;;;;;4979343;28;20038;-81
2021/12/19 15:04:03;;;;;;;9.32;1.80;;;7.70;99.90;;;;;;4994674;28;20077;-81
2021/12/19 15:06:37;;;;;;;17.80;2.72;;;7.70;99.90;;;;;;4994267;28;20076;-81
2021/12/19 15:09:06;;;;;;;12.68;2.63;;;7.70;99.90;;;;;;4978009;28;20046;-81
2021/12/19 15:11:33;;;;;;;14.00;2.63;;;7.70;99.90;;;;;;4993714;28;20046;-79
2021/12/19 15:13:58;;;;;;;15.23;2.58;;;7.70;99.90;;;;;;4995514;28;20119;-81
2021/12/19 15:16:24;;;;;;;15.55;2.50;;;7.70;99.90;;;;;;4995427;28;20121;-81
2021/12/19 15:18:50;;;;;;;17.30;2.75;;;7.70;99.90;;;;;;4993946;28;20038;-82
2021/12/19 15:21:16;;;;;;;17.83;3.30;;;7.60;99.90;;;;;;4993781;28;20077;-81
2021/12/19 15:23:42;;;;;;;13.35;2.00;;;7.70;99.90;;;;;;4993597;28;20073;-80
2021/12/19 15:26:15;;;;;;;17.83;2.58;;;7.60;99.90;;;;;;4993779;28;20057;-81
2021/12/19 15:28:46;;;;;;;11.23;2.13;;;7.60;99.90;;;;;;4993728;28;20517;-81
2021/12/19 15:31:13;;;;;;;13.52;2.88;;;7.60;99.90;;;;;;4993667;28;20046;-80
2021/12/19 15:33:40;;;;;;;15.25;3.28;;;7.60;99.90;;;;;;4993764;28;20481;-84
2021/12/19 15:36:05;;;;;;;15.50;3.00;;;7.60;99.90;;;;;;4993291;28;20054;-81
2021/12/19 15:38:32;;;;;;;13.82;2.30;;;7.60;99.90;;;;;;4995012;28;20402;-82
2021/12/19 15:40:58;;;;;;;15.48;2.80;;;7.60;99.90;;;;;;4977838;28;20421;-81
2021/12/19 15:43:24;;;;;;;15.10;1.90;;;7.60;99.90;;;;;;4993480;28;20046;-81
2021/12/19 15:45:49;;;;;;;14.30;2.30;;;7.60;99.90;;;;;;4993689;28;20050;-82
2021/12/19 15:48:15;;;;;;;10.90;1.80;;;7.60;99.90;;;;;;4994664;28;20045;-80
2021/12/19 15:50:41;;;;;;;18.13;3.40;;;7.60;99.90;;;;;;4994456;28;20044;-82
2021/12/19 15:53:06;;;;;;;9.15;2.33;;;7.70;99.90;;;;;;4993108;28;20085;-80
2021/12/19 15:55:34;;;;;;;11.13;2.92;;;7.60;99.90;;;;;;4992985;28;20065;-80
2021/12/19 15:57:59;;;;;;;12.90;2.95;;;7.60;99.90;;;;;;4994592;28;20038;-79
2021/12/19 16:00:26;;;;;;;20.35;3.97;;;7.60;99.90;;;;;;4992626;28;20125;-80
2021/12/19 16:02:52;;;;;;;15.40;2.25;;;7.60;99.90;;;;;;4993174;28;20392;-79
2021/12/19 16:05:20;;;;;;;13.88;2.30;;;7.60;99.90;;;;;;4993199;28;20162;-82
2021/12/19 16:07:47;;;;;;;19.63;2.65;;;7.60;99.90;;;;;;4993376;28;20188;-81
2021/12/19 16:10:13;;;;;;;15.40;2.55;;;7.60;99.90;;;;;;4993075;28;20431;-81
2021/12/19 16:12:39;;;;;;;18.45;3.35;;;7.50;99.90;;;;;;4992788;28;20038;-81
2021/12/19 16:15:07;;;;;;;16.48;3.85;;;7.50;99.90;;;;;;4992536;28;20546;-81
2021/12/19 16:17:33;;;;;;;20.95;3.28;;;7.50;99.90;;;;;;4993670;28;20043;-80
2021/12/19 16:19:59;;;;;;;22.08;3.42;;;7.50;99.90;;;;;;4992532;28;20043;-80
2021/12/19 16:22:27;;;;;;;22.17;4.55;;;7.50;99.90;;;;;;4992557;28;20095;-80
2021/12/19 16:24:54;;;;;;;14.65;2.80;;;7.50;99.90;;;;;;4991996;28;20056;-81
2021/12/19 16:27:20;;;;;;;21.42;3.85;;;7.50;99.90;;;;;;4992272;28;20057;-81
2021/12/19 16:29:46;;;;;;;17.13;3.42;;;7.50;99.90;;;;;;4976167;28;20042;-81
2021/12/19 16:32:11;;;;;;;19.25;3.13;;;7.50;99.90;;;;;;4992378;28;20065;-82
2021/12/19 16:34:37;;;;;;;18.83;3.13;;;7.50;99.90;;;;;;4992374;28;20038;-80
2021/12/19 16:37:03;;;;;;;18.02;2.50;;;7.50;99.90;;;;;;4992406;28;20066;-81
2021/12/19 16:39:29;;;;;;;16.73;3.45;;;7.40;99.90;;;;;;4993540;28;20152;-81
2021/12/19 16:42:08;;;;;;;19.60;4.22;;;7.50;99.90;;;;;;4992153;28;20125;-81
2021/12/19 16:44:34;;;;;;;20.58;3.50;;;7.50;99.90;;;;;;4992445;28;20122;-81
2021/12/19 16:47:00;;;;;;;17.63;3.05;;;7.50;99.90;;;;;;4992362;28;20125;-80
2021/12/19 16:49:26;;;;;;;14.52;3.28;;;7.50;99.90;;;;;;4992288;28;20042;-81
2021/12/19 16:51:52;;;;;;;18.73;3.13;;;7.50;99.90;;;;;;4992596;28;20068;-81
2021/12/19 16:54:18;;;;;;;13.77;2.65;;;7.50;99.90;;;;;;4992131;28;20042;-80
2021/12/19 16:56:44;;;;;;;17.10;3.10;;;7.50;99.90;;;;;;4992160;28;20096;-81
2021/12/19 16:59:10;;;;;;;11.60;3.25;;;7.50;99.90;;;;;;4992146;28;20034;-81
2021/12/19 17:01:40;;;;;;;11.32;2.65;;;7.50;99.90;;;;;;4991820;28;20046;-80
2021/12/19 17:04:06;;;;;;;12.75;2.80;;;7.50;99.90;;;;;;4992062;28;20030;-80
2021/12/19 17:06:33;;;;;;;10.13;2.00;;;7.50;99.90;;;;;;4992205;28;20042;-79
2021/12/19 17:08:58;;;;;;;13.68;2.58;;;7.50;99.90;;;;;;4976154;28;20484;-80
2021/12/19 17:11:26;;;;;;;15.27;3.60;;;7.50;99.90;;;;;;4993435;28;20058;-80
2021/12/19 17:14:06;;;;;;;17.73;3.00;;;7.50;99.90;;;;;;4991964;28;20078;-80
2021/12/19 17:16:38;;;;;;;22.48;3.67;;;7.50;99.90;;;;;;4993211;28;20054;-80
2021/12/19 17:19:05;;;;;;;23.55;5.30;;;7.40;99.90;;;;;;4992082;28;20069;-80
2021/12/19 17:21:31;;;;;;;21.35;4.25;;;7.40;99.90;;;;;;4992671;28;20373;-78
2021/12/19 17:23:56;;;;;;;12.40;2.38;;;7.40;99.90;;;;;;4992211;28;20039;-81
2021/12/19 17:26:22;;;;;;;12.88;2.65;;;7.40;99.90;;;;;;4991646;28;20038;-80
2021/12/19 17:28:48;;;;;;;12.60;2.38;;;7.40;99.90;;;;;;4991664;28;20042;-81
2021/12/19 17:31:14;;;;;;;14.45;2.15;;;7.40;99.90;;;;;;4992041;28;20034;-80
2021/12/19 17:33:39;;;;;;;18.80;2.85;;;7.40;99.90;;;;;;4991877;28;20050;-80
2021/12/19 17:36:05;;;;;;;12.05;2.22;;;7.40;99.90;;;;;;4994090;28;20442;-81
2021/12/19 17:38:31;;;;;;;17.83;4.38;;;7.40;99.90;;;;;;4995561;28;20400;-80
2021/12/19 17:41:00;;;;;;;14.07;4.30;;;7.40;99.90;;;;;;4995706;28;20049;-80
2021/12/19 17:43:27;;;;;;;14.05;3.63;;;7.40;99.90;;;;;;4996875;28;20093;-80
2021/12/19 17:45:56;;;;;;;20.77;4.53;;;7.40;99.90;;;;;;4979136;28;20057;-81
2021/12/19 17:48:23;;;;;;;15.20;3.95;;;7.40;99.90;;;;;;4995702;28;20413;-80
2021/12/19 17:50:49;;;;;;;20.60;4.68;;;7.40;99.90;;;;;;4995133;28;20120;-81
2021/12/19 17:53:16;;;;;;;14.38;3.08;;;7.40;99.90;;;;;;4979185;28;20187;-80
2021/12/19 17:55:41;;;;;;;11.60;2.60;;;7.40;99.90;;;;;;4979040;28;20089;-80
2021/12/19 17:58:08;;;;;;;7.63;1.52;;;7.40;99.90;;;;;;4995220;28;20042;-81
2021/12/19 18:00:34;;;;;;;14.32;2.67;;;7.40;99.90;;;;;;4994826;28;20081;-81
2021/12/19 18:03:01;;;;;;;14.80;2.10;;;7.40;99.90;;;;;;4995083;28;20034;-80
2021/12/19 18:05:27;;;;;;;11.15;1.98;;;7.40;99.90;;;;;;4994930;28;20042;-80
2021/12/19 18:07:52;;;;;;;14.48;2.33;;;7.40;99.90;;;;;;4994890;28;20030;-81
2021/12/19 18:10:20;;;;;;;11.20;2.17;;;7.40;99.90;;;;;;4994696;28;20045;-79
2021/12/19 18:12:47;;;;;;;14.73;2.55;;;7.40;99.90;;;;;;4994654;28;20043;-80
2021/12/19 18:15:15;;;;;;;9.30;1.88;;;7.40;99.90;;;;;;4995053;28;20365;-80
2021/12/19 18:17:42;;;;;;;11.88;2.08;;;7.40;99.90;;;;;;4994762;28;20124;-80
2021/12/19 18:20:10;;;;;;;19.58;2.63;;;7.40;99.90;;;;;;4994729;28;20091;-80
2021/12/19 18:22:37;;;;;;;11.23;2.58;;;7.40;99.90;;;;;;4978441;28;20049;-80
2021/12/19 18:25:05;;;;;;;11.27;1.92;;;7.40;99.90;;;;;;4994572;28;20042;-80
2021/12/19 18:27:34;;;;;;;13.35;1.88;;;7.40;99.90;;;;;;4978546;28;20046;-81